EETNEEPU

Guest
Details From EETN - TALLINN
To EEPU - PARNU
Flight Number -
Tags generated
Created
Modified
Stats Distance 61 nm / 113 km
Max Altitude 3,900 ft / 1,189 m
Waypoints 3
Social Downloads 4
Likes 0
Share VATSIM

Download

Looking for another format? Having issues loading an existing format? Contact us
Advertisement - Login to hide

Notes

Basic altitude profile: - Ascent Rate: 2500ft/min - Ascent Speed: 330kts - Cruise Altitude: 35000ft - Cruise Speed: 420kts - Descent Rate: 1500ft/min - Descent Speed: 250kts Options: - Use NATs: yes - Use PACOTS: yes - Use low airways: yes - Use high airways: no

Route

EETN KEMET EEPU

ID Type Via Altitude Latitude Longitude Leg Dist Tot Dist Heading (true) Name
O EETN APT - 0 ft / 0 m 59.41326˚ 24.83280˚ - 0 nm - TALLINN
KEMET FIX - 3,900 ft / 1,189 m 58.72250˚ 24.58694˚ 42 nm 42 nm 190° / 190° -
O EEPU APT - 0 ft / 0 m 58.41879˚ 24.47282˚ 18 nm 60 nm 191° / 191° PARNU

Altitude Profile

Advertisement - Login to hide

EETN

Details ICAO EETN (TLL)
Name TALLINN
Region Estonia
Timezone Europe/Tallinn (UTC+3.0)
Stats Elevation 131 ft / 40 m (AMSL)
Location 59.413257° 24.832803°
Runways 1
Magnetic Variation 8.703° E

METAR

EETN 231320Z 27012KT CAVOK 20/06 Q1022 NOSIG

Decode

TAF

TAF TAF EETN 231130Z 2312/2412 30012KT CAVOK PROB4O TEMPO 2312/2316 SCT030CB BECMG 2323/2401 04014KT

Decode

Departure Runways

ID Width Length Bearing (true) Bearing (mag) Surface Threshold Offset Overrun Length
08 148 ft / 45 m 10,023 ft / 3,055 m 90.24° 81.54° Asphalt 820 ft / 250 m 0 ft / 0 m
26 148 ft / 45 m 10,023 ft / 3,055 m 270.28° 261.58° Asphalt 0 ft / 0 m 184 ft / 56 m

EEPU

Details ICAO EEPU (EPU)
Name PARNU
Region Estonia
Timezone Europe/Tallinn (UTC+3.0)
Stats Elevation 47 ft / 14 m (AMSL)
Location 58.418794° 24.472822°
Runways 1
Magnetic Variation 8.288° E

METAR

EEPU 231250Z 29004KT 240V350 CAVOK 21/10 Q1022

Decode

TAF

Not found

Destination Runways

ID Width Length Bearing (true) Bearing (mag) Surface Threshold Offset Overrun Length
03 148 ft / 45 m 8,122 ft / 2,475 m 35.28° 26.99° Concrete 0 ft / 0 m 0 ft / 0 m
21 148 ft / 45 m 8,122 ft / 2,475 m 215.30° 207.01° Concrete 0 ft / 0 m 0 ft / 0 m

Popular Alternatives